Time;durP1;ratioP1;P1;durP2;ratioP2;P2;SDS_P1;SDS_P2;PMS_P1;PMS_P2;Temp;Humidity;BMP_temperature;BMP_pressure;BME280_temperature;BME280_humidity;BME280_pressure;Samples;Min_cycle;Max_cycle;Signal;HPM_P1;HPM_P2
2022/04/20 00:02:23;;;;;;;3.80;3.50;;;9.80;63.30;;;;;;5137915;27;21325;-80
2022/04/20 00:04:50;;;;;;;4.50;4.10;;;9.40;63.70;;;;;;5140375;27;21064;-80
2022/04/20 00:07:18;;;;;;;5.60;4.30;;;9.20;64.40;;;;;;5139752;27;20625;-80
2022/04/20 00:09:45;;;;;;;7.10;4.00;;;9.40;65.30;;;;;;5143479;27;20656;-80
2022/04/20 00:12:12;;;;;;;5.70;5.07;;;9.20;65.80;;;;;;5141375;27;20612;-80
2022/04/20 00:14:38;;;;;;;9.73;7.77;;;9.60;67.20;;;;;;5142528;27;21195;-80
2022/04/20 00:17:06;;;;;;;8.37;7.63;;;9.60;68.00;;;;;;5138164;27;21175;-82
2022/04/20 00:19:32;;;;;;;4.60;4.27;;;9.60;69.00;;;;;;5140064;27;21297;-82
2022/04/20 00:21:59;;;;;;;7.50;4.83;;;9.30;69.70;;;;;;5144768;27;21190;-81
2022/04/20 00:24:27;;;;;;;6.40;5.90;;;9.30;70.40;;;;;;5138228;27;20610;-82
2022/04/20 00:26:54;;;;;;;5.33;4.83;;;8.90;70.60;;;;;;5144833;27;20625;-81
2022/04/20 00:29:20;;;;;;;4.30;4.00;;;8.90;71.60;;;;;;5142029;27;20618;-82
2022/04/20 00:31:47;;;;;;;4.30;3.90;;;9.20;72.60;;;;;;5142487;27;20617;-82
2022/04/20 00:34:14;;;;;;;5.30;4.00;;;9.10;72.70;;;;;;5143531;27;20643;-82
2022/04/20 00:36:41;;;;;;;4.50;4.20;;;9.30;73.80;;;;;;5139704;27;20622;-81
2022/04/20 00:39:08;;;;;;;8.40;4.67;;;9.20;74.70;;;;;;5140383;27;20622;-81
2022/04/20 00:41:36;;;;;;;4.50;4.10;;;8.80;75.00;;;;;;5136822;27;20625;-82
2022/04/20 00:44:03;;;;;;;5.47;4.27;;;9.10;76.10;;;;;;5133060;27;20660;-81
2022/04/20 00:46:30;;;;;;;4.30;3.90;;;9.20;77.20;;;;;;5140498;27;20644;-81
2022/04/20 00:48:58;;;;;;;4.27;3.90;;;8.60;76.30;;;;;;5136211;27;20628;-82
2022/04/20 00:51:25;;;;;;;4.77;4.47;;;9.10;77.10;;;;;;5145045;27;20845;-81
2022/04/20 00:53:51;;;;;;;4.30;4.00;;;9.10;76.60;;;;;;5146750;27;20631;-81
2022/04/20 00:56:18;;;;;;;4.40;4.00;;;9.00;77.50;;;;;;5150420;27;20937;-81
2022/04/20 00:58:47;;;;;;;4.50;4.10;;;8.80;77.80;;;;;;5140630;27;20638;-82
2022/04/20 01:01:14;;;;;;;4.93;4.53;;;8.70;77.30;;;;;;5145846;27;20668;-82
2022/04/20 01:03:41;;;;;;;4.00;3.70;;;8.90;78.30;;;;;;5140272;27;20671;-81
2022/04/20 01:06:08;;;;;;;5.07;4.20;;;8.90;79.30;;;;;;5145283;27;20617;-82
2022/04/20 01:08:35;;;;;;;4.40;4.00;;;9.00;79.90;;;;;;5138486;27;20656;-81
2022/04/20 01:11:03;;;;;;;6.03;4.23;;;8.40;80.70;;;;;;5140609;27;20660;-80
2022/04/20 01:13:29;;;;;;;4.10;3.70;;;8.40;81.30;;;;;;5142930;27;20620;-81
2022/04/20 01:15:58;;;;;;;4.50;4.10;;;8.60;82.20;;;;;;5141570;27;20984;-80
2022/04/20 01:18:24;;;;;;;5.10;4.60;;;8.60;82.60;;;;;;5146956;27;20622;-80
2022/04/20 01:20:52;;;;;;;4.60;4.30;;;8.60;84.30;;;;;;5142429;27;21060;-80
2022/04/20 01:23:19;;;;;;;4.30;3.93;;;8.20;84.50;;;;;;5144087;27;20696;-82
2022/04/20 01:25:47;;;;;;;4.10;3.80;;;8.40;85.40;;;;;;5148148;27;20621;-81
2022/04/20 01:28:15;;;;;;;5.17;4.43;;;8.40;85.80;;;;;;5145500;27;20979;-81
2022/04/20 01:30:42;;;;;;;5.03;4.43;;;8.30;86.40;;;;;;5144522;27;21068;-82
2022/04/20 01:33:08;;;;;;;5.97;4.20;;;8.10;87.10;;;;;;5137157;27;20637;-82
2022/04/20 01:35:35;;;;;;;4.37;4.07;;;8.30;87.70;;;;;;5138688;27;20623;-82
2022/04/20 01:38:03;;;;;;;3.80;3.53;;;8.00;87.60;;;;;;5143657;27;20621;-81
2022/04/20 01:40:30;;;;;;;5.37;4.97;;;8.30;87.90;;;;;;5141558;27;20644;-81
2022/04/20 01:42:57;;;;;;;7.60;4.10;;;8.00;88.50;;;;;;5143686;27;20668;-81
2022/04/20 01:45:23;;;;;;;4.73;4.33;;;7.80;89.30;;;;;;5138881;27;21159;-82
2022/04/20 01:47:51;;;;;;;5.23;4.83;;;8.10;90.10;;;;;;5147926;27;20617;-81
2022/04/20 01:50:17;;;;;;;4.17;3.80;;;7.90;89.90;;;;;;5147156;27;21005;-81
2022/04/20 01:52:47;;;;;;;4.13;3.80;;;8.20;90.10;;;;;;5141902;27;20601;-82
2022/04/20 01:55:16;;;;;;;5.90;4.30;;;7.60;90.20;;;;;;5139927;27;20621;-82
2022/04/20 01:57:43;;;;;;;4.77;4.37;;;8.30;90.80;;;;;;5143004;27;21006;-82
2022/04/20 02:00:11;;;;;;;4.37;3.97;;;8.00;91.30;;;;;;5145248;27;21266;-81
2022/04/20 02:02:38;;;;;;;4.30;3.70;;;7.70;91.30;;;;;;5145456;27;20632;-82
2022/04/20 02:05:07;;;;;;;5.00;4.47;;;7.40;91.70;;;;;;5146130;27;21106;-82
2022/04/20 02:07:35;;;;;;;3.63;3.30;;;7.90;92.10;;;;;;5142547;27;20630;-82
2022/04/20 02:10:03;;;;;;;4.60;4.30;;;7.80;92.10;;;;;;5140509;27;20653;-82
2022/04/20 02:12:31;;;;;;;4.60;4.13;;;7.80;92.30;;;;;;5145165;27;21188;-82
2022/04/20 02:14:58;;;;;;;4.27;3.97;;;7.70;92.40;;;;;;5145286;27;20625;-82
2022/04/20 02:17:24;;;;;;;7.07;4.20;;;7.30;92.50;;;;;;5144587;27;20636;-82
2022/04/20 02:19:51;;;;;;;7.33;3.80;;;7.60;93.00;;;;;;5143365;27;20885;-81
2022/04/20 02:22:18;;;;;;;5.80;4.13;;;7.30;93.60;;;;;;5146042;27;20613;-82
2022/04/20 02:24:45;;;;;;;3.83;3.53;;;7.80;94.10;;;;;;5141062;27;20661;-82
2022/04/20 02:27:13;;;;;;;4.00;3.60;;;7.40;94.00;;;;;;5146709;27;20630;-81
2022/04/20 02:29:41;;;;;;;6.13;4.07;;;7.20;94.20;;;;;;5144012;27;20675;-81
2022/04/20 02:32:09;;;;;;;4.40;4.10;;;7.10;94.80;;;;;;5141093;27;20629;-81
2022/04/20 02:34:36;;;;;;;4.23;3.93;;;7.10;95.60;;;;;;5142646;27;20714;-82
2022/04/20 02:37:04;;;;;;;3.73;3.43;;;6.90;95.70;;;;;;5144715;27;20706;-81
2022/04/20 02:39:31;;;;;;;3.93;3.60;;;7.20;96.10;;;;;;5141291;27;21567;-81
2022/04/20 02:41:59;;;;;;;4.43;4.00;;;7.10;97.20;;;;;;5142290;27;20900;-82
2022/04/20 02:44:26;;;;;;;5.30;4.27;;;7.30;98.20;;;;;;5142637;27;20664;-81
2022/04/20 02:46:54;;;;;;;3.80;3.57;;;7.20;99.60;;;;;;5140068;27;20635;-82
2022/04/20 02:49:21;;;;;;;4.40;4.10;;;7.20;99.90;;;;;;5142112;27;21138;-81
2022/04/20 02:51:48;;;;;;;4.67;4.37;;;6.50;99.90;;;;;;5141261;27;20712;-81
2022/04/20 02:54:14;;;;;;;6.40;3.20;;;7.00;99.90;;;;;;5143156;27;20610;-81
2022/04/20 02:56:41;;;;;;;4.47;4.00;;;6.70;99.90;;;;;;5146084;27;20630;-82
2022/04/20 02:59:08;;;;;;;4.00;3.70;;;6.10;99.90;;;;;;5143659;27;20617;-82
2022/04/20 03:01:35;;;;;;;3.77;3.47;;;6.10;99.90;;;;;;5143447;27;20679;-81
2022/04/20 03:04:03;;;;;;;4.33;3.97;;;6.60;99.90;;;;;;5141330;27;20669;-81
2022/04/20 03:06:30;;;;;;;3.67;3.40;;;6.30;99.90;;;;;;5138870;27;20618;-81
2022/04/20 03:08:56;;;;;;;5.60;3.60;;;6.40;99.90;;;;;;5138604;27;21307;-81
2022/04/20 03:11:23;;;;;;;4.27;3.97;;;6.00;99.90;;;;;;5139159;27;21054;-81
2022/04/20 03:13:50;;;;;;;3.90;3.60;;;6.00;99.90;;;;;;4784586;27;10001976;-81
2022/04/20 03:16:17;;;;;;;4.37;4.07;;;6.30;99.90;;;;;;5142674;27;20204;-80
2022/04/20 03:18:44;;;;;;;3.97;3.60;;;6.20;99.90;;;;;;5141234;27;20621;-81
2022/04/20 03:21:12;;;;;;;4.30;3.90;;;5.60;99.90;;;;;;5136085;27;20645;-81
2022/04/20 03:23:39;;;;;;;4.17;3.87;;;6.10;99.90;;;;;;5140246;27;20658;-81
2022/04/20 03:26:06;;;;;;;4.10;3.80;;;6.20;99.90;;;;;;5143795;27;20628;-81
2022/04/20 03:28:33;;;;;;;5.07;3.60;;;6.10;99.90;;;;;;5144558;27;20637;-81
2022/04/20 03:31:00;;;;;;;5.23;3.70;;;5.50;99.90;;;;;;5141698;27;21112;-81
2022/04/20 03:33:27;;;;;;;4.17;3.40;;;6.00;99.90;;;;;;5142789;27;21069;-81
2022/04/20 03:35:54;;;;;;;6.53;4.23;;;5.80;99.90;;;;;;5144509;27;20621;-81
2022/04/20 03:38:22;;;;;;;4.03;3.60;;;5.80;99.90;;;;;;5139882;27;20633;-81
2022/04/20 03:40:49;;;;;;;4.03;3.73;;;5.90;99.90;;;;;;5142186;27;21283;-81
2022/04/20 03:43:16;;;;;;;4.80;4.50;;;5.60;99.90;;;;;;5141900;27;20625;-81
2022/04/20 03:45:43;;;;;;;4.20;3.80;;;5.70;99.90;;;;;;5141689;27;20622;-81
2022/04/20 03:48:10;;;;;;;4.03;3.73;;;6.00;99.90;;;;;;5143019;27;20634;-81
2022/04/20 03:50:36;;;;;;;4.30;4.00;;;5.30;99.90;;;;;;5142051;27;20690;-81
2022/04/20 03:53:04;;;;;;;4.70;4.30;;;5.60;99.90;;;;;;5137972;27;20633;-81
2022/04/20 03:55:32;;;;;;;4.50;4.20;;;5.60;99.90;;;;;;5142292;27;20736;-81
2022/04/20 03:57:59;;;;;;;4.13;3.83;;;5.60;99.90;;;;;;5143284;27;21014;-81
2022/04/20 04:00:26;;;;;;;4.30;4.00;;;5.50;99.90;;;;;;5140742;27;20672;-80
2022/04/20 04:02:53;;;;;;;3.63;3.43;;;5.70;99.90;;;;;;5138838;27;20668;-81
2022/04/20 04:05:20;;;;;;;5.03;4.63;;;5.10;99.90;;;;;;5141583;27;20760;-81
2022/04/20 04:07:47;;;;;;;4.07;3.80;;;5.60;99.90;;;;;;5140360;27;20638;-81
2022/04/20 04:10:13;;;;;;;3.70;3.40;;;5.40;99.90;;;;;;5144693;27;20652;-81
2022/04/20 04:12:41;;;;;;;3.83;3.60;;;4.90;99.90;;;;;;5139446;27;20640;-81
2022/04/20 04:15:09;;;;;;;3.80;3.43;;;5.30;99.90;;;;;;5143055;27;20619;-81
2022/04/20 04:17:36;;;;;;;6.70;3.57;;;5.20;99.90;;;;;;5144197;27;20634;-81
2022/04/20 04:20:04;;;;;;;3.83;3.53;;;5.00;99.90;;;;;;5145975;27;20653;-81
2022/04/20 04:22:31;;;;;;;4.20;3.90;;;5.40;99.90;;;;;;5146494;27;20622;-81
2022/04/20 04:24:58;;;;;;;3.97;3.67;;;5.40;99.90;;;;;;5144891;27;20666;-81
2022/04/20 04:27:24;;;;;;;4.27;3.97;;;5.40;99.90;;;;;;5146829;27;20682;-80
2022/04/20 04:29:52;;;;;;;3.60;3.40;;;5.20;99.90;;;;;;5146683;27;20654;-81
2022/04/20 04:32:19;;;;;;;5.27;3.20;;;5.20;99.90;;;;;;5141954;27;20654;-80
2022/04/20 04:34:46;;;;;;;3.27;3.07;;;5.30;99.90;;;;;;5144982;27;20630;-80
2022/04/20 04:37:14;;;;;;;3.80;3.30;;;5.50;99.90;;;;;;5148816;27;20634;-80
2022/04/20 04:39:41;;;;;;;3.43;3.13;;;5.70;99.90;;;;;;5143282;27;21007;-80
2022/04/20 04:42:09;;;;;;;4.27;3.30;;;5.60;99.90;;;;;;5136940;27;20659;-80
2022/04/20 04:44:36;;;;;;;3.73;3.53;;;5.80;99.90;;;;;;5140199;27;21215;-80
2022/04/20 04:49:54;;;;;;;4.13;3.60;;;5.50;99.90;;;;;;5071216;27;20632;-81
2022/04/20 04:52:21;;;;;;;3.93;3.63;;;5.60;99.90;;;;;;5144100;27;20616;-81
2022/04/20 04:54:47;;;;;;;3.87;3.50;;;5.60;99.90;;;;;;5145203;27;20973;-81
2022/04/20 04:57:14;;;;;;;9.40;3.40;;;5.40;99.90;;;;;;5145736;27;21196;-81
2022/04/20 04:59:42;;;;;;;4.03;3.60;;;5.90;99.90;;;;;;5142011;27;20663;-81
2022/04/20 05:02:10;;;;;;;5.20;4.53;;;5.60;99.90;;;;;;5145238;27;21051;-81
2022/04/20 05:04:39;;;;;;;4.03;3.27;;;6.00;99.90;;;;;;5143101;27;20670;-82
2022/04/20 05:07:09;;;;;;;6.40;3.97;;;6.10;99.90;;;;;;5145012;27;20609;-82
2022/04/20 05:09:36;;;;;;;3.67;3.47;;;6.30;99.90;;;;;;5144709;27;20654;-82
2022/04/20 05:12:03;;;;;;;4.47;4.07;;;6.60;99.90;;;;;;5146025;27;21218;-82
2022/04/20 05:14:30;;;;;;;3.80;3.50;;;6.70;99.90;;;;;;5138395;27;20628;-81
2022/04/20 05:16:59;;;;;;;4.97;4.67;;;6.10;99.90;;;;;;5144654;27;21618;-82
2022/04/20 05:19:29;;;;;;;3.77;3.47;;;6.20;99.90;;;;;;5134389;27;20636;-82
2022/04/20 05:21:55;;;;;;;4.70;4.40;;;6.80;99.90;;;;;;5136707;27;21301;-81
2022/04/20 05:24:22;;;;;;;4.23;3.83;;;6.50;99.90;;;;;;5144072;27;20664;-82
2022/04/20 05:26:49;;;;;;;5.13;4.60;;;6.90;99.90;;;;;;5146049;27;20919;-82
2022/04/20 05:29:18;;;;;;;4.37;4.00;;;6.80;99.90;;;;;;5143366;27;21140;-82
2022/04/20 05:31:45;;;;;;;4.70;4.40;;;6.40;99.90;;;;;;5144913;27;20657;-82
2022/04/20 05:34:12;;;;;;;5.43;5.03;;;6.60;99.90;;;;;;5146791;27;20666;-82
2022/04/20 05:42:10;;;;;;;4.93;4.53;;;7.20;99.90;;;;;;5144255;27;20646;-82
2022/04/20 05:44:37;;;;;;;4.10;3.80;;;7.10;99.90;;;;;;5143214;27;20794;-82
2022/04/20 05:47:04;;;;;;;5.33;4.60;;;7.00;99.90;;;;;;5139943;27;20630;-81
2022/04/20 05:49:31;;;;;;;4.50;4.20;;;6.90;99.90;;;;;;5136172;27;20610;-82
2022/04/20 05:51:59;;;;;;;4.40;4.10;;;7.40;99.90;;;;;;5146426;27;20655;-82
2022/04/20 05:54:26;;;;;;;4.07;3.87;;;7.30;99.90;;;;;;5146578;27;20614;-81
2022/04/20 05:56:53;;;;;;;4.40;4.00;;;7.30;99.90;;;;;;5146938;27;20624;-81
2022/04/20 05:59:20;;;;;;;5.67;5.27;;;7.40;99.90;;;;;;5145262;27;20685;-82
2022/04/20 06:01:46;;;;;;;4.60;4.20;;;7.30;99.30;;;;;;5145241;27;20697;-82
2022/04/20 06:04:13;;;;;;;4.40;4.10;;;7.20;99.50;;;;;;5139774;27;20674;-81
2022/04/20 06:06:40;;;;;;;4.33;4.03;;;7.80;99.10;;;;;;5140046;27;20614;-82
2022/04/20 06:09:08;;;;;;;6.83;4.43;;;7.60;98.50;;;;;;5140696;27;20617;-82
2022/04/20 06:11:35;;;;;;;4.93;4.40;;;7.70;98.30;;;;;;5146019;27;20676;-82
2022/04/20 06:14:02;;;;;;;4.00;3.70;;;7.90;98.20;;;;;;5140788;27;20610;-81
2022/04/20 06:16:29;;;;;;;4.17;3.90;;;8.00;97.50;;;;;;5141669;27;20619;-82
2022/04/20 06:18:56;;;;;;;3.70;3.50;;;8.10;96.60;;;;;;5141489;27;20629;-82
2022/04/20 06:21:23;;;;;;;3.60;3.40;;;8.00;96.20;;;;;;5141541;27;20706;-82
2022/04/20 06:23:50;;;;;;;5.57;3.77;;;8.20;95.40;;;;;;5141345;27;21212;-82
2022/04/20 06:26:18;;;;;;;4.03;3.60;;;8.50;95.40;;;;;;5145451;27;21147;-82
2022/04/20 06:28:45;;;;;;;4.77;4.30;;;8.10;94.90;;;;;;5139524;27;21300;-82
2022/04/20 06:31:12;;;;;;;3.70;3.17;;;8.60;95.00;;;;;;5140455;27;20652;-82
2022/04/20 06:33:38;;;;;;;3.50;3.30;;;8.50;94.30;;;;;;5146430;27;21156;-82
2022/04/20 06:36:05;;;;;;;3.90;3.60;;;8.80;93.90;;;;;;5143702;27;20618;-82
2022/04/20 06:38:32;;;;;;;4.10;3.80;;;9.00;93.90;;;;;;5141921;27;20614;-81
2022/04/20 06:40:59;;;;;;;3.63;3.43;;;9.10;93.70;;;;;;5142380;27;20653;-81
2022/04/20 06:43:27;;;;;;;3.70;3.40;;;8.90;93.60;;;;;;5133118;27;20618;-81
2022/04/20 06:45:54;;;;;;;4.13;3.83;;;9.00;93.40;;;;;;5142412;27;21632;-81
2022/04/20 06:48:21;;;;;;;3.10;2.90;;;9.40;93.20;;;;;;5143159;27;21432;-81
2022/04/20 06:50:48;;;;;;;3.60;3.40;;;9.20;92.90;;;;;;5142377;27;20658;-80
2022/04/20 06:58:44;;;;;;;4.07;3.67;;;9.10;91.90;;;;;;5144392;27;21232;-81
2022/04/20 07:01:14;;;;;;;4.07;3.67;;;9.00;91.70;;;;;;5142136;27;21017;-81
2022/04/20 07:03:41;;;;;;;4.60;3.67;;;9.70;92.40;;;;;;5142313;27;20625;-81
2022/04/20 07:06:08;;;;;;;3.70;3.40;;;9.20;91.80;;;;;;5141084;27;20657;-81
2022/04/20 07:08:36;;;;;;;3.43;3.13;;;9.70;92.00;;;;;;5144231;27;20629;-81
2022/04/20 07:11:04;;;;;;;5.87;3.73;;;9.50;91.70;;;;;;5142720;27;20966;-81
2022/04/20 07:13:31;;;;;;;4.17;3.90;;;9.50;91.30;;;;;;5142854;27;21045;-81
2022/04/20 07:16:00;;;;;;;4.07;3.77;;;9.30;91.50;;;;;;5146297;27;21203;-81
2022/04/20 07:18:26;;;;;;;3.83;3.17;;;9.70;91.70;;;;;;5139573;27;20640;-81
2022/04/20 07:20:53;;;;;;;4.60;4.30;;;9.50;91.30;;;;;;5140673;27;20618;-81
2022/04/20 07:23:20;;;;;;;3.93;3.63;;;9.90;91.30;;;;;;5136095;27;21087;-81
2022/04/20 07:25:47;;;;;;;4.23;3.90;;;9.90;91.00;;;;;;5143059;27;21013;-81
2022/04/20 07:28:14;;;;;;;4.10;3.67;;;10.10;90.40;;;;;;5142925;27;20614;-82
2022/04/20 07:30:40;;;;;;;5.17;4.70;;;9.90;90.80;;;;;;5145392;27;20602;-81
2022/04/20 07:33:08;;;;;;;6.20;4.67;;;10.00;90.10;;;;;;5141291;27;20640;-82
2022/04/20 07:35:35;;;;;;;3.73;3.53;;;10.10;90.00;;;;;;5142421;27;20606;-81
2022/04/20 07:38:02;;;;;;;4.60;4.30;;;10.20;90.30;;;;;;5143496;27;20629;-82
2022/04/20 07:40:31;;;;;;;4.20;3.77;;;10.20;89.80;;;;;;5141914;27;20649;-81
2022/04/20 07:42:58;;;;;;;4.43;4.13;;;10.50;89.30;;;;;;5144520;27;20631;-82
2022/04/20 07:45:26;;;;;;;4.10;3.80;;;10.00;88.30;;;;;;5141377;27;20719;-81
2022/04/20 07:47:54;;;;;;;4.17;3.70;;;10.30;88.90;;;;;;5144891;27;20617;-82
2022/04/20 07:50:23;;;;;;;4.40;4.10;;;10.20;88.70;;;;;;5143110;27;20637;-81
2022/04/20 07:52:52;;;;;;;4.00;3.70;;;10.60;88.90;;;;;;5138111;27;20713;-81
2022/04/20 07:55:21;;;;;;;4.37;4.07;;;10.80;88.70;;;;;;5139808;27;20657;-82
2022/04/20 07:57:49;;;;;;;4.73;4.43;;;10.90;87.70;;;;;;5144212;27;20633;-81
2022/04/20 08:00:16;;;;;;;4.40;4.10;;;10.90;87.00;;;;;;5144456;27;20656;-81
2022/04/20 08:02:44;;;;;;;10.03;4.23;;;11.10;88.20;;;;;;5143448;27;20637;-81
2022/04/20 08:05:12;;;;;;;4.33;3.97;;;10.80;87.50;;;;;;5138097;27;20665;-81
2022/04/20 08:07:40;;;;;;;4.23;3.87;;;11.40;88.30;;;;;;5139932;27;20613;-81
2022/04/20 08:10:08;;;;;;;4.13;3.83;;;11.50;87.20;;;;;;5134171;27;20641;-80
2022/04/20 08:12:36;;;;;;;4.80;4.40;;;11.30;86.70;;;;;;5140853;27;21171;-81
2022/04/20 08:15:05;;;;;;;4.80;4.20;;;11.60;86.50;;;;;;5143135;27;21067;-81
2022/04/20 08:17:32;;;;;;;4.30;3.90;;;11.60;86.00;;;;;;5142233;27;21147;-81
2022/04/20 08:19:59;;;;;;;4.90;4.00;;;11.60;84.90;;;;;;5141540;27;21257;-81
2022/04/20 08:22:27;;;;;;;3.30;3.10;;;11.80;83.70;;;;;;5144136;27;20624;-80
2022/04/20 08:24:55;;;;;;;6.60;3.57;;;11.60;83.80;;;;;;5144302;27;20653;-80
2022/04/20 08:27:22;;;;;;;4.10;3.80;;;11.80;84.40;;;;;;5141026;27;20630;-81
2022/04/20 08:29:49;;;;;;;6.73;3.60;;;12.00;83.50;;;;;;5142889;27;20649;-81
2022/04/20 08:32:17;;;;;;;5.03;3.77;;;12.10;83.10;;;;;;5144707;27;20631;-81
2022/04/20 08:34:44;;;;;;;4.57;4.27;;;12.20;83.60;;;;;;5141161;27;20687;-81
2022/04/20 08:37:11;;;;;;;4.60;4.20;;;12.40;83.20;;;;;;5143091;27;20625;-81
2022/04/20 08:39:39;;;;;;;4.40;4.03;;;12.40;81.50;;;;;;5137842;27;20654;-81
2022/04/20 08:42:11;;;;;;;3.73;3.43;;;12.60;81.20;;;;;;5142281;27;20689;-80
2022/04/20 08:44:43;;;;;;;3.60;3.10;;;12.70;80.10;;;;;;5139813;27;20628;-80
2022/04/20 08:47:15;;;;;;;4.03;3.73;;;12.80;78.90;;;;;;5141303;27;20640;-80
2022/04/20 08:49:43;;;;;;;4.07;3.77;;;12.70;78.80;;;;;;5143320;27;20652;-80
2022/04/20 08:54:56;;;;;;;4.20;3.90;;;12.50;78.30;;;;;;5136402;27;20620;-81
2022/04/20 08:57:25;;;;;;;7.30;4.13;;;12.60;79.20;;;;;;5141034;27;20969;-81
2022/04/20 08:59:54;;;;;;;4.30;3.90;;;12.70;78.90;;;;;;5137823;27;20657;-81
2022/04/20 09:02:24;;;;;;;3.30;3.03;;;12.90;79.40;;;;;;5142610;27;20662;-81
2022/04/20 09:04:51;;;;;;;3.10;2.87;;;13.10;78.60;;;;;;5140085;27;20727;-81
2022/04/20 09:07:18;;;;;;;3.10;2.90;;;13.20;76.90;;;;;;5146294;27;20621;-81
2022/04/20 09:09:46;;;;;;;2.97;2.77;;;13.30;76.50;;;;;;5142783;27;21003;-81
2022/04/20 09:12:16;;;;;;;3.23;3.03;;;13.40;74.90;;;;;;5139179;27;20628;-81
2022/04/20 09:14:48;;;;;;;3.23;3.03;;;13.40;74.20;;;;;;5143953;27;20652;-81
2022/04/20 09:17:17;;;;;;;3.40;3.10;;;13.40;75.30;;;;;;5142855;27;20640;-81
2022/04/20 09:19:45;;;;;;;4.50;3.47;;;13.60;75.70;;;;;;5147711;27;20736;-81
2022/04/20 09:22:20;;;;;;;2.50;2.30;;;13.70;74.30;;;;;;5144110;27;21160;-81
2022/04/20 09:25:05;;;;;;;3.53;2.77;;;13.80;74.50;;;;;;5141306;27;20624;-81
2022/04/20 09:27:33;;;;;;;4.50;2.60;;;13.90;72.10;;;;;;5144509;27;20752;-80
2022/04/20 09:30:01;;;;;;;3.77;2.90;;;14.00;71.10;;;;;;5144925;27;20647;-81
2022/04/20 09:32:39;;;;;;;2.67;2.47;;;14.00;70.80;;;;;;5149804;27;20608;-81
2022/04/20 09:35:09;;;;;;;5.70;2.90;;;14.10;70.30;;;;;;5143739;27;20628;-81
2022/04/20 09:37:36;;;;;;;3.13;2.83;;;14.20;70.00;;;;;;5144182;27;20962;-81
2022/04/20 09:40:05;;;;;;;2.43;2.23;;;14.40;69.70;;;;;;5146950;27;20776;-81
2022/04/20 09:42:34;;;;;;;3.20;2.70;;;14.40;69.50;;;;;;5146187;27;20625;-81
2022/04/20 09:45:04;;;;;;;4.23;3.20;;;14.30;67.20;;;;;;5149355;27;20654;-81
2022/04/20 09:50:22;;;;;;;3.13;2.80;;;14.20;68.00;;;;;;5147193;27;20719;-80
2022/04/20 09:52:50;;;;;;;3.53;3.23;;;14.40;67.50;;;;;;5143638;27;20697;-82
2022/04/20 09:55:27;;;;;;;2.93;2.73;;;14.40;65.20;;;;;;5135755;27;20637;-81
2022/04/20 09:58:08;;;;;;;4.67;3.43;;;14.50;66.90;;;;;;5147821;27;20637;-81
2022/04/20 10:00:40;;;;;;;3.20;2.97;;;14.50;65.70;;;;;;5140676;27;20622;-82
2022/04/20 10:03:07;;;;;;;3.00;2.80;;;14.60;65.40;;;;;;5144083;27;20761;-81
2022/04/20 10:05:34;;;;;;;3.80;3.10;;;14.50;64.70;;;;;;5147837;27;20653;-81
2022/04/20 10:08:01;;;;;;;2.93;2.70;;;14.70;66.50;;;;;;5145978;27;20613;-81
2022/04/20 10:10:29;;;;;;;3.30;3.00;;;14.80;65.20;;;;;;5140744;27;20707;-81
2022/04/20 10:12:57;;;;;;;2.93;2.63;;;15.00;64.40;;;;;;5147050;27;20621;-81
2022/04/20 10:18:17;;;;;;;3.23;2.83;;;15.40;63.00;;;;;;5142749;27;21154;-82
2022/04/20 10:20:48;;;;;;;3.43;3.13;;;15.50;63.60;;;;;;5147084;27;20617;-82
2022/04/20 10:23:18;;;;;;;3.53;2.40;;;15.70;62.10;;;;;;5144093;27;20629;-82
2022/04/20 10:25:45;;;;;;;2.77;2.40;;;15.80;61.60;;;;;;5141210;27;20665;-82
2022/04/20 10:28:18;;;;;;;3.47;2.57;;;15.90;61.00;;;;;;5138693;27;20898;-82
2022/04/20 10:30:52;;;;;;;2.60;2.40;;;16.10;60.40;;;;;;5143131;27;20617;-82
2022/04/20 10:33:23;;;;;;;2.77;2.43;;;16.30;59.50;;;;;;5145997;27;20625;-82
2022/04/20 10:36:01;;;;;;;2.47;2.30;;;16.50;58.30;;;;;;5141885;27;21253;-82
2022/04/20 10:38:31;;;;;;;2.90;2.70;;;16.70;58.80;;;;;;5145477;27;21007;-82
2022/04/20 10:41:02;;;;;;;2.77;2.47;;;16.90;59.30;;;;;;5143398;27;20724;-81
2022/04/20 10:43:30;;;;;;;3.47;2.83;;;17.20;57.50;;;;;;5137575;27;20634;-81
2022/04/20 10:46:14;;;;;;;3.97;2.70;;;17.40;57.80;;;;;;5143935;27;20678;-81
2022/04/20 10:48:46;;;;;;;3.10;2.80;;;17.60;56.50;;;;;;5147379;27;21274;-82
2022/04/20 10:51:14;;;;;;;2.60;2.40;;;17.80;56.50;;;;;;5146471;27;21171;-82
2022/04/20 10:53:43;;;;;;;3.60;3.20;;;18.00;55.60;;;;;;5138288;27;20658;-82
2022/04/20 10:56:10;;;;;;;3.47;2.90;;;18.20;55.80;;;;;;5148963;27;20623;-82
2022/04/20 10:58:38;;;;;;;2.80;2.33;;;18.40;55.20;;;;;;5143251;27;20649;-82
2022/04/20 11:01:11;;;;;;;3.03;2.40;;;18.60;56.10;;;;;;5147562;27;20850;-82
2022/04/20 11:04:05;;;;;;;2.10;2.00;;;18.70;53.20;;;;;;5141228;27;20643;-81
2022/04/20 11:07:01;;;;;;;4.10;2.90;;;18.80;52.20;;;;;;5146501;27;20721;-81
2022/04/20 11:10:06;;;;;;;6.23;3.00;;;19.20;53.30;;;;;;5141022;27;21559;-82
2022/04/20 11:18:42;;;;;;;3.10;2.80;;;19.70;51.70;;;;;;5145018;27;20717;-82
2022/04/20 11:21:28;;;;;;;3.20;2.90;;;20.00;50.70;;;;;;5140990;27;20630;-81
2022/04/20 11:24:13;;;;;;;4.10;2.90;;;20.00;50.50;;;;;;5141288;27;20617;-81
2022/04/20 11:26:41;;;;;;;3.00;2.80;;;20.30;51.10;;;;;;5145519;27;21242;-83
2022/04/20 11:29:14;;;;;;;3.97;3.57;;;20.60;50.40;;;;;;5140858;27;20661;-82
2022/04/20 11:31:43;;;;;;;3.10;2.80;;;20.80;49.50;;;;;;5146147;27;21180;-83
2022/04/20 11:34:10;;;;;;;6.67;3.50;;;21.20;48.20;;;;;;5145724;27;20628;-83
2022/04/20 11:36:43;;;;;;;3.60;3.30;;;21.30;47.40;;;;;;5145873;27;21131;-83
2022/04/20 11:39:11;;;;;;;2.57;2.40;;;21.60;47.00;;;;;;5135701;27;21284;-83
2022/04/20 11:41:37;;;;;;;2.93;2.73;;;21.60;45.60;;;;;;5142382;27;20692;-83
2022/04/20 11:44:19;;;;;;;3.57;3.30;;;21.60;45.40;;;;;;5144645;27;20629;-84
2022/04/20 11:46:46;;;;;;;8.47;3.10;;;21.70;45.40;;;;;;5145599;27;21065;-83
2022/04/20 11:49:13;;;;;;;4.47;2.40;;;21.90;45.80;;;;;;5144670;27;20706;-83
2022/04/20 11:51:45;;;;;;;4.77;2.87;;;22.10;45.90;;;;;;5147435;27;21095;-83
2022/04/20 11:54:18;;;;;;;3.03;2.80;;;22.40;44.80;;;;;;5145086;27;20673;-83
2022/04/20 11:56:45;;;;;;;2.70;2.50;;;22.60;43.80;;;;;;5144359;27;20715;-83
2022/04/20 11:59:12;;;;;;;3.17;2.93;;;22.60;43.80;;;;;;5141034;27;21238;-82
2022/04/20 12:01:41;;;;;;;2.80;2.60;;;22.80;43.70;;;;;;5145969;27;20634;-83
2022/04/20 12:04:12;;;;;;;3.67;3.37;;;23.00;43.50;;;;;;5145354;27;20667;-83
2022/04/20 12:06:46;;;;;;;3.77;3.43;;;23.30;42.50;;;;;;5146443;27;20645;-83
2022/04/20 12:09:14;;;;;;;2.87;2.70;;;23.60;42.30;;;;;;5140911;27;20675;-83
2022/04/20 12:11:42;;;;;;;2.87;2.67;;;23.70;42.10;;;;;;5146109;27;20753;-82
2022/04/20 12:14:09;;;;;;;3.13;2.83;;;24.00;42.10;;;;;;5145467;27;20623;-83
2022/04/20 12:16:36;;;;;;;3.30;2.73;;;23.90;41.50;;;;;;5144303;27;20628;-82
2022/04/20 12:19:03;;;;;;;2.73;2.60;;;24.00;40.60;;;;;;5140917;27;20645;-82
2022/04/20 12:21:40;;;;;;;2.50;2.30;;;24.20;39.00;;;;;;5144005;27;20629;-82
2022/04/20 12:24:10;;;;;;;4.47;2.53;;;24.30;38.90;;;;;;5139126;27;21020;-83
2022/04/20 12:26:42;;;;;;;3.00;2.80;;;24.70;39.60;;;;;;5144363;27;20653;-82
2022/04/20 12:29:11;;;;;;;4.10;3.20;;;25.10;38.80;;;;;;5144567;27;20768;-83
2022/04/20 12:31:43;;;;;;;3.47;2.90;;;24.80;38.40;;;;;;5146466;27;20627;-83
2022/04/20 12:34:11;;;;;;;3.00;2.80;;;25.10;39.30;;;;;;5141648;27;20625;-84
2022/04/20 12:36:55;;;;;;;2.47;2.27;;;25.30;37.00;;;;;;5146538;27;20613;-83
2022/04/20 12:39:32;;;;;;;3.93;3.23;;;25.50;38.30;;;;;;5143410;27;20654;-85
2022/04/20 12:42:02;;;;;;;4.30;2.83;;;25.60;37.40;;;;;;5143496;27;20665;-81
2022/04/20 12:44:36;;;;;;;2.80;2.60;;;25.60;36.90;;;;;;5147840;27;20645;-82
2022/04/20 12:47:23;;;;;;;2.97;2.77;;;25.60;36.30;;;;;;5146668;27;20717;-82
2022/04/20 12:49:52;;;;;;;2.70;2.50;;;25.70;35.60;;;;;;5145863;27;20682;-83
2022/04/20 12:52:22;;;;;;;2.47;2.27;;;25.80;35.40;;;;;;5144177;27;20719;-83
2022/04/20 12:54:56;;;;;;;3.53;2.50;;;26.10;36.90;;;;;;5147944;27;20990;-83
2022/04/20 13:03:00;;;;;;;2.70;2.47;;;27.00;32.90;;;;;;5143964;27;20637;-84
2022/04/20 13:05:27;;;;;;;2.50;2.30;;;27.00;33.00;;;;;;5147277;27;20624;-84
2022/04/20 13:07:54;;;;;;;4.20;2.67;;;27.10;33.30;;;;;;5148005;27;20714;-85
2022/04/20 13:10:23;;;;;;;2.60;2.40;;;27.00;32.70;;;;;;5131990;27;20669;-84
2022/04/20 13:12:50;;;;;;;1.93;1.83;;;26.80;31.50;;;;;;5147305;27;20653;-84
2022/04/20 13:15:17;;;;;;;2.40;2.30;;;26.60;31.80;;;;;;5149972;27;20617;-83
2022/04/20 13:17:44;;;;;;;3.50;2.20;;;26.70;31.20;;;;;;5143905;27;20622;-83
2022/04/20 13:20:12;;;;;;;3.53;2.07;;;26.90;31.00;;;;;;5143368;27;21215;-83
2022/04/20 13:22:38;;;;;;;2.77;2.57;;;27.30;30.50;;;;;;5148979;27;21277;-84
2022/04/20 13:27:57;;;;;;;3.00;2.80;;;27.90;30.30;;;;;;5141306;27;20798;-84
2022/04/20 13:30:25;;;;;;;5.30;2.60;;;27.60;29.50;;;;;;5144910;27;20674;-83
2022/04/20 13:32:52;;;;;;;2.77;2.27;;;27.80;30.20;;;;;;5145240;27;21084;-84
2022/04/20 13:35:19;;;;;;;2.70;2.50;;;27.70;29.60;;;;;;5148426;27;20621;-84
2022/04/20 13:37:46;;;;;;;4.40;2.70;;;28.00;30.00;;;;;;5148595;27;20621;-83